createdAt,value
2022-08-18T00:01:06.984Z,27.88
2022-08-18T00:03:56.027Z,23.10
2022-08-18T00:06:21.697Z,25.15
2022-08-18T00:08:48.862Z,29.88
2022-08-18T00:11:20.978Z,25.23
2022-08-18T00:13:48.161Z,24.98
2022-08-18T00:16:15.227Z,22.65
2022-08-18T00:18:42.392Z,25.35
2022-08-18T00:21:09.819Z,25.92
2022-08-18T00:23:38.774Z,25.77
2022-08-18T00:26:06.211Z,26.83
2022-08-18T00:28:33.296Z,29.67
2022-08-18T00:31:01.433Z,25.77
2022-08-18T00:33:28.494Z,23.48
2022-08-18T00:35:56.657Z,24.30
2022-08-18T00:38:25.342Z,25.55
2022-08-18T00:40:55.262Z,22.98
2022-08-18T00:43:32.540Z,25.17
2022-08-18T00:46:00.804Z,25.92
2022-08-18T00:48:29.552Z,25.40
2022-08-18T00:50:59.788Z,27.00
2022-08-18T00:53:33.492Z,24.98
2022-08-18T00:56:06.440Z,25.00
2022-08-18T00:58:42.403Z,25.17
2022-08-18T01:01:12.835Z,26.15
2022-08-18T01:03:43.044Z,25.60
2022-08-18T01:06:21.393Z,23.77
2022-08-18T01:08:48.495Z,23.63
2022-08-18T01:11:15.552Z,23.52
2022-08-18T01:13:43.800Z,23.55
2022-08-18T01:16:29.430Z,25.23
2022-08-18T01:19:14.934Z,23.30
2022-08-18T01:21:51.342Z,23.88
2022-08-18T01:24:47.751Z,24.73
2022-08-18T01:27:18.738Z,25.15
2022-08-18T01:29:50.466Z,22.85
2022-08-18T01:32:23.223Z,25.48
2022-08-18T01:34:52.392Z,24.58
2022-08-18T01:37:24.021Z,23.10
2022-08-18T01:41:23.172Z,24.42
2022-08-18T01:42:39.890Z,25.42
2022-08-18T01:45:08.267Z,25.92
2022-08-18T01:47:47.713Z,29.40
2022-08-18T01:50:16.703Z,29.10
2022-08-18T01:52:43.980Z,28.30
2022-08-18T01:55:11.268Z,30.20
2022-08-18T01:57:43.105Z,28.95
2022-08-18T02:00:13.933Z,25.00
2022-08-18T02:02:42.138Z,26.73
2022-08-18T02:05:21.173Z,25.77
2022-08-18T02:07:48.368Z,27.20
2022-08-18T02:10:20.987Z,26.25
2022-08-18T02:12:47.964Z,24.60
2022-08-18T02:15:15.428Z,23.20
2022-08-18T02:17:45.067Z,23.73
2022-08-18T02:20:15.793Z,26.42
2022-08-18T02:22:43.706Z,28.45
2022-08-18T02:25:11.598Z,24.92
2022-08-18T02:27:38.737Z,26.35
2022-08-18T02:30:09.573Z,24.48
2022-08-18T02:32:36.545Z,28.55
2022-08-18T02:35:06.398Z,26.17
2022-08-18T02:37:37.428Z,25.88
2022-08-18T02:40:06.925Z,26.15
2022-08-18T02:42:34.514Z,26.60
2022-08-18T02:45:01.565Z,27.63
2022-08-18T02:47:33.406Z,26.77
2022-08-18T02:50:00.768Z,28.77
2022-08-18T02:52:33.974Z,28.98
2022-08-18T02:55:04.255Z,31.60
2022-08-18T02:57:32.455Z,30.98
2022-08-18T03:00:00.472Z,26.35
2022-08-18T03:02:28.042Z,28.98
2022-08-18T03:04:55.101Z,27.42
2022-08-18T03:07:22.301Z,26.42
2022-08-18T03:09:49.429Z,27.95
2022-08-18T03:12:17.233Z,28.13
2022-08-18T03:14:44.344Z,26.63
2022-08-18T03:17:11.447Z,28.42
2022-08-18T03:19:38.768Z,26.92
2022-08-18T03:22:27.309Z,28.42
2022-08-18T03:24:56.569Z,27.77
2022-08-18T03:27:24.149Z,26.50
2022-08-18T03:29:51.554Z,26.48
2022-08-18T03:32:18.909Z,27.25
2022-08-18T03:34:45.800Z,30.17
2022-08-18T03:37:12.853Z,28.00
2022-08-18T03:39:40.892Z,29.35
2022-08-18T03:42:07.989Z,28.20
2022-08-18T03:44:39.383Z,28.38
2022-08-18T03:47:10.946Z,27.55
2022-08-18T03:49:38.759Z,28.58
2022-08-18T03:52:09.242Z,27.40
2022-08-18T03:54:39.259Z,27.52
2022-08-18T03:59:54.913Z,25.92
2022-08-18T04:02:22.087Z,26.73
2022-08-18T04:04:49.658Z,26.67
2022-08-18T04:07:19.041Z,27.35
2022-08-18T04:09:45.993Z,28.05
2022-08-18T04:12:17.030Z,27.30
2022-08-18T04:14:48.030Z,29.02
2022-08-18T04:17:16.468Z,25.70
2022-08-18T04:19:43.434Z,27.23
2022-08-18T04:22:10.294Z,28.50
2022-08-18T04:24:45.379Z,30.50
2022-08-18T04:27:12.630Z,27.98
2022-08-18T04:29:39.592Z,28.70
2022-08-18T04:32:07.043Z,30.90
2022-08-18T04:34:34.726Z,36.00
2022-08-18T04:37:02.263Z,29.02
2022-08-18T04:39:30.445Z,28.98
2022-08-18T04:41:58.007Z,26.83
2022-08-18T04:44:25.290Z,31.90
2022-08-18T04:46:53.933Z,28.33
2022-08-18T04:49:26.200Z,28.70
2022-08-18T04:52:22.633Z,27.75
2022-08-18T04:55:01.854Z,27.05
2022-08-18T04:57:33.017Z,27.77
2022-08-18T05:00:02.891Z,28.30
2022-08-18T05:02:33.674Z,26.58
2022-08-18T05:05:03.552Z,27.92
2022-08-18T05:07:30.850Z,28.25
2022-08-18T05:09:57.890Z,27.33
2022-08-18T05:12:26.397Z,29.27
2022-08-18T05:14:54.262Z,30.98
2022-08-18T05:17:21.370Z,28.63
2022-08-18T05:19:49.847Z,26.88
2022-08-18T05:22:19.724Z,27.40
2022-08-18T05:27:38.770Z,30.00
2022-08-18T05:30:07.555Z,26.77
2022-08-18T05:32:48.293Z,25.83
2022-08-18T05:35:25.222Z,28.77
2022-08-18T05:37:58.133Z,40.08
2022-08-18T05:40:26.522Z,30.02
2022-08-18T05:42:57.598Z,27.55
2022-08-18T05:45:25.229Z,27.15
2022-08-18T05:47:57.642Z,27.85
2022-08-18T05:50:24.791Z,30.55
2022-08-18T05:52:57.236Z,30.40
2022-08-18T05:55:54.552Z,25.45
2022-08-18T05:58:38.992Z,26.45
2022-08-18T06:01:27.661Z,22.83
2022-08-18T06:04:01.104Z,23.63
2022-08-18T06:06:30.873Z,23.90
2022-08-18T06:08:57.746Z,22.17
2022-08-18T06:11:25.868Z,22.25
2022-08-18T06:13:59.803Z,20.63
2022-08-18T06:16:51.801Z,21.38
2022-08-18T06:19:37.159Z,23.42
2022-08-18T06:22:15.769Z,21.13
2022-08-18T06:25:26.148Z,20.20
2022-08-18T06:28:06.009Z,24.27
2022-08-18T06:31:00.715Z,22.42
2022-08-18T06:33:51.712Z,19.27
2022-08-18T06:36:46.588Z,19.55
2022-08-18T06:39:24.037Z,23.27
2022-08-18T06:41:53.663Z,20.60
2022-08-18T06:44:43.985Z,23.05
2022-08-18T06:47:30.038Z,21.58
2022-08-18T06:50:02.972Z,19.30
2022-08-18T06:52:31.388Z,17.85
2022-08-18T06:55:01.530Z,22.00
2022-08-18T06:57:38.168Z,21.55
2022-08-18T07:00:17.350Z,19.95
2022-08-18T07:03:11.986Z,23.30
2022-08-18T07:06:03.738Z,17.27
2022-08-18T07:08:35.772Z,16.35
2022-08-18T07:11:14.501Z,18.83
2022-08-18T07:13:44.710Z,16.60
2022-08-18T07:16:23.147Z,16.27
2022-08-18T07:19:08.970Z,16.23
2022-08-18T07:21:38.201Z,15.35
2022-08-18T07:24:25.827Z,13.75
2022-08-18T07:27:07.407Z,16.27
2022-08-18T07:29:38.025Z,16.85
2022-08-18T07:32:20.934Z,18.88
2022-08-18T07:34:55.121Z,14.02
2022-08-18T07:37:29.044Z,12.65
2022-08-18T07:40:06.092Z,14.57
2022-08-18T07:43:01.314Z,13.95
2022-08-18T07:45:45.169Z,11.95
2022-08-18T07:51:43.820Z,13.32
2022-08-18T07:54:45.511Z,11.60
2022-08-18T07:57:19.679Z,12.63
2022-08-18T08:00:05.152Z,13.45
2022-08-18T08:03:12.359Z,14.35
2022-08-18T08:06:16.389Z,14.32
2022-08-18T08:09:12.433Z,15.20
2022-08-18T08:11:59.511Z,11.85
2022-08-18T08:14:39.228Z,12.75
2022-08-18T08:17:26.983Z,12.63
2022-08-18T08:20:08.418Z,13.32
2022-08-18T08:22:49.972Z,13.45
2022-08-18T08:25:45.640Z,13.80
2022-08-18T08:28:57.575Z,13.68
2022-08-18T08:32:09.851Z,12.32
2022-08-18T08:34:54.448Z,15.48
2022-08-18T08:37:44.782Z,12.15
2022-08-18T08:40:22.333Z,11.20
2022-08-18T08:42:59.190Z,12.30
2022-08-18T08:45:34.114Z,11.80
2022-08-18T08:48:14.635Z,10.38
2022-08-18T08:51:15.509Z,13.45
2022-08-18T08:53:54.415Z,12.88
2022-08-18T08:56:26.283Z,15.50
2022-08-18T08:59:03.384Z,12.57
2022-08-18T09:01:36.677Z,17.83
2022-08-18T09:04:06.893Z,14.20
2022-08-18T09:07:00.706Z,12.48
2022-08-18T09:09:43.107Z,13.77
2022-08-18T09:12:48.618Z,14.32
2022-08-18T09:15:37.424Z,12.60
2022-08-18T09:18:35.101Z,13.98
2022-08-18T09:21:31.919Z,10.82
2022-08-18T09:24:15.107Z,12.35
2022-08-18T09:27:13.940Z,10.48
2022-08-18T09:30:01.959Z,9.30
2022-08-18T09:32:53.205Z,13.18
2022-08-18T09:35:38.393Z,13.75
2022-08-18T09:38:24.302Z,10.77
2022-08-18T09:41:16.214Z,13.00
2022-08-18T09:44:51.501Z,13.50
2022-08-18T09:50:24.840Z,10.35
2022-08-18T09:53:15.364Z,12.35
2022-08-18T09:55:57.894Z,12.98
2022-08-18T09:58:29.425Z,10.93
2022-08-18T10:01:36.168Z,13.45
2022-08-18T10:04:15.230Z,10.70
2022-08-18T10:06:48.914Z,9.73
2022-08-18T10:09:36.535Z,13.50
2022-08-18T10:12:39.787Z,13.85
2022-08-18T10:18:45.444Z,12.90
2022-08-18T10:21:31.266Z,12.32
2022-08-18T10:26:56.002Z,14.32
2022-08-18T10:29:28.603Z,10.23
2022-08-18T10:31:55.704Z,9.70
2022-08-18T10:34:52.102Z,12.70
2022-08-18T10:37:26.089Z,12.02
2022-08-18T10:39:53.465Z,11.60
2022-08-18T10:42:48.243Z,15.05
2022-08-18T10:45:30.849Z,11.00
2022-08-18T10:48:24.280Z,11.80
2022-08-18T10:51:21.496Z,11.55
2022-08-18T10:54:12.990Z,12.25
2022-08-18T10:56:54.520Z,10.98
2022-08-18T10:59:50.600Z,12.50
2022-08-18T11:02:41.315Z,11.02
2022-08-18T11:05:11.783Z,9.90
2022-08-18T11:07:46.909Z,9.25
2022-08-18T11:10:32.159Z,11.15
2022-08-18T11:13:09.795Z,9.82
2022-08-18T11:15:55.240Z,11.30
2022-08-18T11:18:36.490Z,10.00
2022-08-18T11:21:33.335Z,12.57
2022-08-18T11:24:07.545Z,10.13
2022-08-18T11:27:15.214Z,14.38
2022-08-18T11:29:44.372Z,10.52
2022-08-18T11:32:24.226Z,9.45
2022-08-18T11:35:16.411Z,10.18
2022-08-18T11:37:53.824Z,13.18
2022-08-18T11:49:34.011Z,10.05
2022-08-18T11:52:15.271Z,9.90
2022-08-18T11:57:53.556Z,13.52
2022-08-18T12:00:42.513Z,9.35
2022-08-18T12:03:21.595Z,13.55
2022-08-18T12:09:04.579Z,9.65
2022-08-18T12:11:41.263Z,12.90
2022-08-18T12:17:08.493Z,7.68
2022-08-18T12:19:35.782Z,7.60
2022-08-18T12:22:15.599Z,8.40
2022-08-18T12:24:46.033Z,8.25
2022-08-18T12:27:21.643Z,7.97
2022-08-18T12:29:54.187Z,8.50
2022-08-18T12:35:13.325Z,8.70
2022-08-18T12:40:31.305Z,9.75
2022-08-18T12:42:58.271Z,9.55
2022-08-18T12:48:13.269Z,9.18
2022-08-18T12:50:54.539Z,9.90
2022-08-18T12:53:29.216Z,8.38
2022-08-18T12:56:08.565Z,11.13
2022-08-18T12:58:38.226Z,7.82
2022-08-18T13:01:07.825Z,8.45
2022-08-18T13:03:35.274Z,8.27
2022-08-18T13:06:04.692Z,11.23
2022-08-18T13:08:33.617Z,7.88
2022-08-18T13:11:20.805Z,7.68
2022-08-18T13:13:53.313Z,7.43
2022-08-18T13:16:30.652Z,7.40
2022-08-18T13:19:10.835Z,7.55
2022-08-18T13:21:39.062Z,7.43
2022-08-18T13:24:09.596Z,7.30
2022-08-18T13:26:41.570Z,6.45
2022-08-18T13:29:10.110Z,7.75
2022-08-18T13:31:38.307Z,9.18
2022-08-18T13:34:11.838Z,7.07
2022-08-18T13:36:47.864Z,7.15
2022-08-18T13:39:18.078Z,5.97
2022-08-18T13:41:47.736Z,6.88
2022-08-18T13:44:19.758Z,7.78
2022-08-18T13:46:48.908Z,7.53
2022-08-18T13:49:18.638Z,8.68
2022-08-18T13:51:56.599Z,8.13
2022-08-18T13:54:31.339Z,7.82
2022-08-18T13:57:02.697Z,7.80
2022-08-18T13:59:34.068Z,9.70
2022-08-18T14:02:08.443Z,7.88
2022-08-18T14:04:36.774Z,7.40
2022-08-18T14:07:09.637Z,7.13
2022-08-18T14:09:38.417Z,6.55
2022-08-18T14:12:21.440Z,7.00
2022-08-18T14:14:53.932Z,8.15
2022-08-18T14:17:24.379Z,7.88
2022-08-18T14:20:15.145Z,8.50
2022-08-18T14:23:13.496Z,7.63
2022-08-18T14:26:00.506Z,7.72
2022-08-18T14:28:29.694Z,8.68
2022-08-18T14:30:58.432Z,6.85
2022-08-18T14:33:50.846Z,6.18
2022-08-18T14:36:17.119Z,7.40
2022-08-18T14:38:45.484Z,6.72
2022-08-18T14:41:14.163Z,7.25
2022-08-18T14:44:00.428Z,7.72
2022-08-18T14:46:32.796Z,7.78
2022-08-18T14:49:04.005Z,9.23
2022-08-18T14:51:31.925Z,8.27
2022-08-18T14:54:01.174Z,9.48
2022-08-18T14:56:29.735Z,9.63
2022-08-18T14:59:00.556Z,10.90
2022-08-18T15:01:27.695Z,9.63
2022-08-18T15:04:19.136Z,7.03
2022-08-18T15:06:56.307Z,8.68
2022-08-18T15:09:26.919Z,10.45
2022-08-18T15:11:56.431Z,8.88
2022-08-18T15:14:33.177Z,7.63
2022-08-18T15:17:02.949Z,8.55
2022-08-18T15:19:58.416Z,8.88
2022-08-18T15:22:36.013Z,7.78
2022-08-18T15:25:24.092Z,10.80
2022-08-18T15:27:52.708Z,7.45
2022-08-18T15:30:21.570Z,8.68
2022-08-18T15:32:49.899Z,7.32
2022-08-18T15:35:19.569Z,8.23
2022-08-18T15:37:51.197Z,10.02
2022-08-18T15:40:30.854Z,9.77
2022-08-18T15:43:09.884Z,6.68
2022-08-18T15:45:42.970Z,10.40
2022-08-18T15:48:19.599Z,9.35
2022-08-18T15:50:51.151Z,8.43
2022-08-18T15:53:25.558Z,12.05
2022-08-18T15:55:57.350Z,9.57
2022-08-18T15:58:26.803Z,8.77
2022-08-18T16:00:55.702Z,7.95
2022-08-18T16:03:22.569Z,8.63
2022-08-18T16:05:53.431Z,8.40
2022-08-18T16:08:25.195Z,8.10
2022-08-18T16:10:53.625Z,7.93
2022-08-18T16:13:20.853Z,11.65
2022-08-18T16:15:50.045Z,11.82
2022-08-18T16:18:18.969Z,9.40
2022-08-18T16:20:45.835Z,10.85
2022-08-18T16:23:13.624Z,11.63
2022-08-18T16:25:42.246Z,9.32
2022-08-18T16:28:10.303Z,12.75
2022-08-18T16:30:37.310Z,10.75
2022-08-18T16:33:06.509Z,12.13
2022-08-18T16:35:35.594Z,10.25
2022-08-18T16:38:09.568Z,11.07
2022-08-18T16:40:37.634Z,10.98
2022-08-18T16:43:05.964Z,11.45
2022-08-18T16:45:35.872Z,12.50
2022-08-18T16:48:02.975Z,13.38
2022-08-18T16:50:30.107Z,14.63
2022-08-18T16:52:57.784Z,13.48
2022-08-18T16:55:24.797Z,10.60
2022-08-18T16:58:14.861Z,11.00
2022-08-18T17:01:01.400Z,10.13
2022-08-18T17:03:46.706Z,12.25
2022-08-18T17:06:16.595Z,10.85
2022-08-18T17:08:44.692Z,10.80
2022-08-18T17:11:18.310Z,11.02
2022-08-18T17:13:47.244Z,11.73
2022-08-18T17:16:15.267Z,11.57
2022-08-18T17:18:43.177Z,14.90
2022-08-18T17:21:13.477Z,14.10
2022-08-18T17:23:41.172Z,13.80
2022-08-18T17:26:27.945Z,13.60
2022-08-18T17:29:05.862Z,12.20
2022-08-18T17:31:35.094Z,10.63
2022-08-18T17:34:08.043Z,11.13
2022-08-18T17:36:52.994Z,19.42
2022-08-18T17:39:26.968Z,16.25
2022-08-18T17:42:17.257Z,11.85
2022-08-18T17:44:52.686Z,12.57
2022-08-18T17:47:26.752Z,13.10
2022-08-18T17:50:28.057Z,13.85
2022-08-18T17:53:05.719Z,16.02
2022-08-18T17:55:41.319Z,13.65
2022-08-18T17:58:39.314Z,12.68
2022-08-18T18:01:07.999Z,13.80
2022-08-18T18:03:34.957Z,13.60
2022-08-18T18:06:23.954Z,13.32
2022-08-18T18:09:05.225Z,15.52
2022-08-18T18:11:37.638Z,16.40
2022-08-18T18:14:26.037Z,13.98
2022-08-18T18:17:12.830Z,12.95
2022-08-18T18:19:43.189Z,17.05
2022-08-18T18:22:26.705Z,16.75
2022-08-18T18:25:03.836Z,18.38
2022-08-18T18:27:37.165Z,17.90
2022-08-18T18:30:11.317Z,18.10
2022-08-18T18:32:48.985Z,15.98
2022-08-18T18:35:54.255Z,20.70
2022-08-18T18:38:40.693Z,14.90
2022-08-18T18:41:13.473Z,19.15
2022-08-18T18:43:46.911Z,17.02
2022-08-18T18:46:25.300Z,18.15
2022-08-18T18:49:26.615Z,18.15
2022-08-18T18:52:42.160Z,18.30
2022-08-18T18:55:19.479Z,20.38
2022-08-18T18:58:18.446Z,23.88
2022-08-18T19:00:55.895Z,23.95
2022-08-18T19:03:56.608Z,19.90
2022-08-18T19:06:49.689Z,23.15
2022-08-18T19:09:24.434Z,18.27
2022-08-18T19:12:11.594Z,26.98
2022-08-18T19:14:49.912Z,24.35
2022-08-18T19:17:27.943Z,23.08
2022-08-18T19:20:06.963Z,25.75
2022-08-18T19:22:47.374Z,20.85
2022-08-18T19:25:20.420Z,21.60
2022-08-18T19:27:59.111Z,24.75
2022-08-18T19:30:26.504Z,23.38
2022-08-18T19:32:57.241Z,20.80
2022-08-18T19:35:59.096Z,22.83
2022-08-18T19:38:33.724Z,22.35
2022-08-18T19:41:22.448Z,17.58
2022-08-18T19:44:13.500Z,19.52
2022-08-18T19:46:40.351Z,20.00
2022-08-18T19:49:16.720Z,26.55
2022-08-18T19:51:46.492Z,18.30
2022-08-18T19:54:20.732Z,25.42
2022-08-18T19:57:32.086Z,19.25
2022-08-18T20:00:15.776Z,19.48
2022-08-18T20:03:00.404Z,20.33
2022-08-18T20:05:32.085Z,20.40
2022-08-18T20:08:25.665Z,21.13
2022-08-18T20:11:01.275Z,16.17
2022-08-18T20:13:36.695Z,18.13
2022-08-18T20:16:13.203Z,19.85
2022-08-18T20:18:45.946Z,16.45
2022-08-18T20:21:15.968Z,17.70
2022-08-18T20:24:05.914Z,18.10
2022-08-18T20:26:37.682Z,16.67
2022-08-18T20:29:37.698Z,19.35
2022-08-18T20:32:20.606Z,16.75
2022-08-18T20:34:51.278Z,17.85
2022-08-18T20:37:28.065Z,18.05
2022-08-18T20:39:55.739Z,18.25
2022-08-18T20:42:22.784Z,18.10
2022-08-18T20:44:52.304Z,17.38
2022-08-18T20:47:25.813Z,18.58
2022-08-18T20:50:31.696Z,18.05
2022-08-18T20:53:10.590Z,17.88
2022-08-18T20:55:48.759Z,20.95
2022-08-18T20:58:26.381Z,16.95
2022-08-18T21:00:57.145Z,17.13
2022-08-18T21:03:38.626Z,17.63
2022-08-18T21:06:06.513Z,16.58
2022-08-18T21:08:36.494Z,17.77
2022-08-18T21:11:08.303Z,21.65
2022-08-18T21:13:41.123Z,20.67
2022-08-18T21:16:11.978Z,16.95
2022-08-18T21:18:40.329Z,18.77
2022-08-18T21:21:26.767Z,15.82
2022-08-18T21:23:58.134Z,18.27
2022-08-18T21:26:27.743Z,16.75
2022-08-18T21:29:06.721Z,19.40
2022-08-18T21:31:44.111Z,18.27
2022-08-18T21:34:33.569Z,15.15
2022-08-18T21:37:07.953Z,14.85
2022-08-18T21:39:46.051Z,14.07
2022-08-18T21:42:19.547Z,14.48
2022-08-18T21:44:47.657Z,13.73
2022-08-18T21:47:31.884Z,17.10
2022-08-18T21:50:23.139Z,16.67
2022-08-18T21:52:59.353Z,16.45
2022-08-18T21:55:42.351Z,18.02
2022-08-18T21:58:17.898Z,19.90
2022-08-18T22:01:04.750Z,16.67
2022-08-18T22:03:34.353Z,13.98
2022-08-18T22:06:22.078Z,16.73
2022-08-18T22:08:55.592Z,14.25
2022-08-18T22:12:01.176Z,16.30
2022-08-18T22:14:53.703Z,16.33
2022-08-18T22:17:43.106Z,14.88
2022-08-18T22:20:37.945Z,16.33
2022-08-18T22:23:32.185Z,16.75
2022-08-18T22:26:16.669Z,18.25
2022-08-18T22:29:00.581Z,16.05
2022-08-18T22:31:37.475Z,15.10
2022-08-18T22:34:10.714Z,14.63
2022-08-18T22:36:45.972Z,18.27
2022-08-18T22:39:17.004Z,14.60
2022-08-18T22:41:46.278Z,17.40
2022-08-18T22:44:13.400Z,14.93
2022-08-18T22:46:40.491Z,16.90
2022-08-18T22:49:08.544Z,15.85
2022-08-18T22:51:37.141Z,15.43
2022-08-18T22:54:08.261Z,17.58
2022-08-18T22:56:36.542Z,14.73
2022-08-18T22:59:16.125Z,18.42
2022-08-18T23:01:49.831Z,15.57
2022-08-18T23:04:19.963Z,17.20
2022-08-18T23:06:52.314Z,18.60
2022-08-18T23:09:25.675Z,18.55
2022-08-18T23:11:55.395Z,14.77
2022-08-18T23:14:23.130Z,14.68
2022-08-18T23:16:50.608Z,16.45
2022-08-18T23:19:20.682Z,13.20
2022-08-18T23:21:48.796Z,16.80
2022-08-18T23:24:17.594Z,15.10
2022-08-18T23:26:44.496Z,13.20
2022-08-18T23:29:14.364Z,17.27
2022-08-18T23:31:43.517Z,18.00
2022-08-18T23:34:13.237Z,15.90
2022-08-18T23:36:45.242Z,14.88
2022-08-18T23:39:13.162Z,14.73
2022-08-18T23:41:40.353Z,15.65
2022-08-18T23:44:07.551Z,16.52
2022-08-18T23:46:35.064Z,15.23
2022-08-18T23:49:04.966Z,15.43
2022-08-18T23:51:44.303Z,16.67
2022-08-18T23:54:21.640Z,17.67
2022-08-18T23:56:49.063Z,16.30
2022-08-18T23:59:17.655Z,17.33
